Francistown, Botswana

5:11 PM CAT on February 07, 2016 (GMT +0200)
Francistown | | Change Station
CLOSE
Current Station
Airport
Location: Francistown,
Elevation: 3281 ft
Nearby Weather Stations

Elev 3281 ft 21.16 °S, 27.48 °E | Updated 11 minutes ago

Thunderstorm
Thunderstorm
86 °F
Feels Like 87 °F
N
4
Wind Variable Wind from WNW

Today
High -- | Low -- °F
--% Chance of Precip.
Yesterday
High -- | Low -- °F
Precip. -- in
Pressure 29.95 in
Visibility 6.2 miles
Clouds Few 3000 ft
Few 3500 ft
Scattered Clouds 7000 ft
Heat Index 87 °F
Dew Point 64 °F
Humidity 48%
Rainfall 0.00 in
Snow Depth Not available.
5:55 AM 6:52 PM
Waning Crescent, 1% visible
METAR FBFT 071500Z 29003KT 9999 TS FEW030 FEW035CB SCT070 30/18 Q1014
Pressure 29.95 in
Visibility 6.2 miles
Clouds Few 3000 ft
Few 3500 ft
Scattered Clouds 7000 ft
Heat Index 87 °F
Dew Point 64 °F
Humidity 48%
Rainfall 0.00 in
Snow Depth Not available.
5:55 AM 6:52 PM
Waning Crescent, 1% visible
METAR FBFT 071500Z 29003KT 9999 TS FEW030 FEW035CB SCT070 30/18 Q1014

10-Day Weather Forecast

No radar image for this location.
×

Almanac

Astronomy

Feb. 07, 2016 Rise Set
Actual Time
Civil Twilight
Nautical Twilight
Astronomical Twilight
Moon
Length of Visible Light
Length of Day
Tomorrow will be .
, % of the Moon is Illuminated

Today's Extremes

Country Highs Country Lows

Community

WunderPhotos

Upload Photos

1,891,214 photos uploaded!

WunderBlog® & News

Nearby

Air Quality

  Air Quality AQ Index Pollutant
Not available.

Snow Depth

Station Depth Elevation

Earthquake Activity

City Distance Mag. Time & Date
Minimum magnitude displayed is 2.5.

Coastal Water Temperatures

Place Temperature

Stations

Nearby Weather Stations

Station Location Temp. Windchill Dew Point Humidity Wind Precip. Elev Updated Type